createdAt,value
2018-09-18T00:00:11.504Z,99.99
2018-09-18T00:01:11.478Z,99.99
2018-09-18T00:02:11.452Z,99.99
2018-09-18T00:03:11.427Z,99.99
2018-09-18T00:04:11.402Z,99.99
2018-09-18T00:05:11.376Z,99.99
2018-09-18T00:06:11.351Z,99.99
2018-09-18T00:07:11.325Z,99.99
2018-09-18T00:08:11.301Z,99.99
2018-09-18T00:09:11.277Z,99.99
2018-09-18T00:10:11.248Z,99.99
2018-09-18T00:11:11.223Z,99.99
2018-09-18T00:12:11.199Z,99.99
2018-09-18T00:13:11.171Z,99.99
2018-09-18T00:14:11.147Z,99.99
2018-09-18T00:15:11.121Z,99.99
2018-09-18T00:16:11.097Z,99.99
2018-09-18T00:17:11.072Z,99.99
2018-09-18T00:18:11.046Z,99.99
2018-09-18T00:19:11.021Z,99.99
2018-09-18T00:20:10.994Z,99.99
2018-09-18T00:21:10.968Z,99.99
2018-09-18T00:22:10.943Z,99.99
2018-09-18T00:23:10.919Z,99.99
2018-09-18T00:24:10.894Z,99.99
2018-09-18T00:25:10.865Z,99.99
2018-09-18T00:26:10.840Z,99.99
2018-09-18T00:27:10.816Z,99.99
2018-09-18T00:28:10.791Z,99.99
2018-09-18T00:29:10.764Z,99.99
2018-09-18T00:30:10.740Z,99.99
2018-09-18T00:31:10.714Z,99.99
2018-09-18T00:32:10.689Z,99.99
2018-09-18T00:33:10.668Z,99.99
2018-09-18T00:34:10.638Z,99.99
2018-09-18T00:35:10.612Z,99.99
2018-09-18T00:36:10.585Z,99.99
2018-09-18T00:37:10.559Z,99.99
2018-09-18T00:38:10.534Z,99.99
2018-09-18T00:39:10.509Z,99.99
2018-09-18T00:40:10.483Z,99.99
2018-09-18T00:41:10.457Z,99.99
2018-09-18T00:42:10.432Z,99.99
2018-09-18T00:43:10.408Z,99.99
2018-09-18T00:44:10.382Z,99.99
2018-09-18T00:45:10.355Z,99.99
2018-09-18T00:46:10.330Z,99.99
2018-09-18T00:47:10.308Z,99.99
2018-09-18T00:48:10.280Z,99.99
2018-09-18T00:49:10.253Z,99.99
2018-09-18T00:50:10.231Z,99.99
2018-09-18T00:51:10.201Z,99.99
2018-09-18T00:52:10.176Z,99.99
2018-09-18T00:53:10.150Z,99.99
2018-09-18T00:54:10.125Z,99.99
2018-09-18T00:55:10.102Z,99.99
2018-09-18T00:56:10.074Z,99.99
2018-09-18T00:57:10.048Z,99.99
2018-09-18T00:58:10.020Z,99.99
2018-09-18T00:59:09.997Z,99.99
2018-09-18T01:00:09.971Z,99.99
2018-09-18T01:01:09.944Z,99.99
2018-09-18T01:02:09.917Z,99.99
2018-09-18T01:03:09.895Z,99.99
2018-09-18T01:04:09.869Z,99.99
2018-09-18T01:05:09.840Z,99.99
2018-09-18T01:06:09.816Z,99.99
2018-09-18T01:07:09.790Z,99.99
2018-09-18T01:08:09.763Z,99.99
2018-09-18T01:09:09.738Z,99.99
2018-09-18T01:10:09.711Z,99.99
2018-09-18T01:11:09.685Z,99.99
2018-09-18T01:12:09.660Z,99.99
2018-09-18T01:13:09.634Z,99.99
2018-09-18T01:14:09.609Z,99.99
2018-09-18T01:15:09.584Z,99.99
2018-09-18T01:16:09.558Z,99.99
2018-09-18T01:17:09.531Z,99.99
2018-09-18T01:18:09.504Z,99.99
2018-09-18T01:19:09.479Z,99.99
2018-09-18T01:20:09.453Z,99.99
2018-09-18T01:21:09.426Z,99.99
2018-09-18T01:22:09.401Z,99.99
2018-09-18T01:23:09.374Z,99.99
2018-09-18T01:24:09.349Z,99.99
2018-09-18T01:25:09.324Z,99.99
2018-09-18T01:26:09.298Z,99.99
2018-09-18T01:27:09.272Z,99.99
2018-09-18T01:28:09.248Z,99.99
2018-09-18T01:29:09.221Z,99.99
2018-09-18T01:30:09.193Z,99.99
2018-09-18T01:31:09.167Z,99.99
2018-09-18T01:32:09.143Z,99.99
2018-09-18T01:33:09.116Z,99.99
2018-09-18T01:34:09.090Z,99.99
2018-09-18T01:35:09.064Z,99.99
2018-09-18T01:36:09.038Z,99.99
2018-09-18T01:37:09.013Z,99.99
2018-09-18T01:38:08.987Z,99.99
2018-09-18T01:39:08.960Z,99.99
2018-09-18T01:40:08.933Z,99.99
2018-09-18T01:41:08.907Z,99.99
2018-09-18T01:42:08.880Z,99.99
2018-09-18T01:43:08.854Z,99.99
2018-09-18T01:44:08.829Z,99.99
2018-09-18T01:45:08.805Z,99.99
2018-09-18T01:46:08.779Z,99.99
2018-09-18T01:47:08.752Z,99.99
2018-09-18T01:48:08.727Z,99.99
2018-09-18T01:49:08.698Z,99.99
2018-09-18T01:50:08.673Z,99.99
2018-09-18T01:51:08.646Z,99.99
2018-09-18T01:52:08.620Z,99.99
2018-09-18T01:53:08.593Z,99.99
2018-09-18T01:54:08.568Z,99.99
2018-09-18T01:55:08.544Z,99.99
2018-09-18T01:56:08.514Z,99.99
2018-09-18T01:57:08.488Z,99.99
2018-09-18T01:58:08.462Z,99.99
2018-09-18T01:59:08.438Z,99.99
2018-09-18T02:00:08.410Z,99.99
2018-09-18T02:01:08.384Z,99.99
2018-09-18T02:02:08.359Z,99.99
2018-09-18T02:03:08.331Z,99.99
2018-09-18T02:04:08.306Z,99.99
2018-09-18T02:05:08.278Z,99.99
2018-09-18T02:06:08.252Z,99.99
2018-09-18T02:07:08.227Z,99.99
2018-09-18T02:08:08.201Z,99.99
2018-09-18T02:09:08.173Z,99.99
2018-09-18T02:10:08.149Z,99.99
2018-09-18T02:11:08.123Z,99.99
2018-09-18T02:12:08.101Z,99.99
2018-09-18T02:13:08.070Z,99.99
2018-09-18T02:14:08.043Z,99.99
2018-09-18T02:15:08.018Z,99.99
2018-09-18T02:16:07.991Z,99.99
2018-09-18T02:17:07.965Z,99.99
2018-09-18T02:18:07.937Z,99.99
2018-09-18T02:19:07.912Z,99.99
2018-09-18T02:20:07.886Z,99.99
2018-09-18T02:21:07.860Z,99.99
2018-09-18T02:22:07.833Z,99.99
2018-09-18T02:23:07.808Z,99.99
2018-09-18T02:24:07.782Z,99.99
2018-09-18T02:25:07.754Z,99.99
2018-09-18T02:26:07.732Z,99.99
2018-09-18T02:27:07.703Z,99.99
2018-09-18T02:28:07.677Z,99.99
2018-09-18T02:29:07.649Z,99.99
2018-09-18T02:30:07.626Z,99.99
2018-09-18T02:31:07.598Z,99.99
2018-09-18T02:32:07.571Z,99.99
2018-09-18T02:33:07.546Z,99.99
2018-09-18T02:34:07.519Z,99.99
2018-09-18T02:35:07.492Z,99.99
2018-09-18T02:36:07.467Z,99.99
2018-09-18T02:37:07.439Z,99.99
2018-09-18T02:38:07.412Z,99.99
2018-09-18T02:39:07.387Z,99.99
2018-09-18T02:40:07.360Z,99.99
2018-09-18T02:41:07.332Z,99.99
2018-09-18T02:42:07.307Z,99.99
2018-09-18T02:43:07.280Z,99.99
2018-09-18T02:44:07.255Z,99.99
2018-09-18T02:45:07.227Z,99.99
2018-09-18T02:46:07.205Z,99.99
2018-09-18T02:47:07.182Z,99.99
2018-09-18T02:48:07.149Z,99.99
2018-09-18T02:49:07.123Z,99.99
2018-09-18T02:50:07.096Z,99.99
2018-09-18T02:51:07.070Z,99.99
2018-09-18T02:52:07.043Z,99.99
2018-09-18T02:53:07.017Z,99.99
2018-09-18T02:54:06.992Z,99.99
2018-09-18T02:55:06.965Z,99.99
2018-09-18T02:56:06.938Z,99.99
2018-09-18T02:57:06.910Z,99.99
2018-09-18T02:58:06.885Z,99.99
2018-09-18T02:59:06.859Z,99.99
2018-09-18T03:00:06.832Z,99.99
2018-09-18T03:01:06.805Z,99.99
2018-09-18T03:02:06.780Z,99.99
2018-09-18T03:03:06.752Z,99.99
2018-09-18T03:04:06.728Z,99.99
2018-09-18T03:05:06.699Z,99.99
2018-09-18T03:06:06.672Z,99.99
2018-09-18T03:07:06.647Z,99.99
2018-09-18T03:08:06.621Z,99.99
2018-09-18T03:09:06.595Z,99.99
2018-09-18T03:10:06.569Z,99.99
2018-09-18T03:11:06.602Z,99.99
2018-09-18T03:12:06.515Z,99.99
2018-09-18T03:13:06.487Z,99.99
2018-09-18T03:14:06.461Z,99.99
2018-09-18T03:15:06.435Z,99.99
2018-09-18T03:16:06.408Z,99.99
2018-09-18T03:17:06.381Z,99.99
2018-09-18T03:18:06.356Z,99.99
2018-09-18T03:19:06.330Z,99.99
2018-09-18T03:20:06.302Z,99.99
2018-09-18T03:21:06.404Z,99.99
2018-09-18T03:22:06.249Z,99.99
2018-09-18T03:23:06.225Z,99.99
2018-09-18T03:24:06.197Z,99.99
2018-09-18T03:25:06.170Z,99.99
2018-09-18T03:26:06.142Z,99.99
2018-09-18T03:27:06.117Z,99.99
2018-09-18T03:28:06.092Z,99.99
2018-09-18T03:29:06.064Z,99.99
2018-09-18T03:30:06.037Z,99.99
2018-09-18T03:31:06.010Z,99.99
2018-09-18T03:32:05.985Z,99.99
2018-09-18T03:33:05.958Z,99.99
2018-09-18T03:34:05.929Z,99.99
2018-09-18T03:35:05.905Z,99.99
2018-09-18T03:36:05.878Z,99.99
2018-09-18T03:37:05.850Z,99.99
2018-09-18T03:38:05.825Z,99.99
2018-09-18T03:39:05.799Z,99.99
2018-09-18T03:40:05.772Z,99.99
2018-09-18T03:41:05.744Z,99.99
2018-09-18T03:42:05.718Z,99.99
2018-09-18T03:43:05.692Z,99.99
2018-09-18T03:44:05.666Z,99.99
2018-09-18T03:45:05.638Z,99.99
2018-09-18T03:46:05.609Z,99.99
2018-09-18T03:47:05.585Z,99.99
2018-09-18T03:48:05.559Z,99.99
2018-09-18T03:49:05.531Z,99.99
2018-09-18T03:50:05.505Z,99.99
2018-09-18T03:51:05.477Z,99.99
2018-09-18T03:52:05.452Z,99.99
2018-09-18T03:53:05.424Z,99.99
2018-09-18T03:54:05.399Z,99.99
2018-09-18T03:55:05.371Z,99.99
2018-09-18T03:56:05.348Z,99.99
2018-09-18T03:57:05.316Z,99.99
2018-09-18T03:58:05.291Z,99.99
2018-09-18T03:59:05.265Z,99.99
2018-09-18T04:00:05.237Z,99.99
2018-09-18T04:01:05.211Z,99.99
2018-09-18T04:02:05.184Z,99.99
2018-09-18T04:03:05.160Z,99.99
2018-09-18T04:04:05.133Z,99.99
2018-09-18T04:05:05.105Z,99.99
2018-09-18T04:06:05.075Z,99.99
2018-09-18T04:07:05.050Z,99.99
2018-09-18T04:08:05.025Z,99.99
2018-09-18T04:09:04.997Z,99.99
2018-09-18T04:10:04.971Z,99.99
2018-09-18T04:11:04.944Z,99.99
2018-09-18T04:12:04.916Z,99.99
2018-09-18T04:13:04.890Z,99.99
2018-09-18T04:14:04.862Z,99.99
2018-09-18T04:15:04.839Z,99.99
2018-09-18T04:16:04.811Z,99.99
2018-09-18T04:17:04.786Z,99.99
2018-09-18T04:18:04.756Z,99.99
2018-09-18T04:19:04.730Z,99.99
2018-09-18T04:20:04.701Z,99.99
2018-09-18T04:21:04.674Z,99.99
2018-09-18T04:22:04.648Z,99.99
2018-09-18T04:23:04.622Z,99.99
2018-09-18T04:24:04.595Z,99.99
2018-09-18T04:25:04.569Z,99.99
2018-09-18T04:26:04.541Z,99.99
2018-09-18T04:27:04.514Z,99.99
2018-09-18T04:28:04.489Z,99.99
2018-09-18T04:29:04.459Z,99.99
2018-09-18T04:30:04.436Z,99.99
2018-09-18T04:31:04.408Z,99.99
2018-09-18T04:32:04.382Z,99.99
2018-09-18T04:33:04.353Z,99.99
2018-09-18T04:34:04.325Z,99.99
2018-09-18T04:35:04.300Z,99.99
2018-09-18T04:36:04.275Z,99.99
2018-09-18T04:37:04.244Z,99.99
2018-09-18T04:38:04.219Z,99.99
2018-09-18T04:39:04.192Z,99.99
2018-09-18T04:40:04.165Z,99.99
2018-09-18T04:41:04.137Z,99.99
2018-09-18T04:42:04.117Z,99.99
2018-09-18T04:43:04.084Z,99.99
2018-09-18T04:44:04.062Z,99.99
2018-09-18T04:45:04.030Z,99.99
2018-09-18T04:46:04.057Z,99.99
2018-09-18T04:47:03.976Z,99.99
2018-09-18T04:48:03.949Z,99.99
2018-09-18T04:49:03.922Z,99.99
2018-09-18T04:50:03.896Z,99.99
2018-09-18T04:51:03.869Z,99.99
2018-09-18T04:52:03.842Z,99.99
2018-09-18T04:53:03.814Z,99.99
2018-09-18T04:54:03.788Z,99.99
2018-09-18T04:55:03.878Z,99.99
2018-09-18T04:56:03.736Z,99.99
2018-09-18T04:57:03.706Z,99.99
2018-09-18T04:58:03.682Z,99.99
2018-09-18T04:59:03.658Z,99.99
2018-09-18T05:00:03.628Z,99.99
2018-09-18T05:01:03.600Z,99.99
2018-09-18T05:02:03.628Z,99.99
2018-09-18T05:03:03.547Z,99.99
2018-09-18T05:04:03.521Z,99.99
2018-09-18T05:05:03.493Z,99.99
2018-09-18T05:06:03.466Z,99.99
2018-09-18T05:07:03.440Z,99.99
2018-09-18T05:08:03.412Z,99.99
2018-09-18T05:09:03.384Z,99.99
2018-09-18T05:10:03.358Z,99.99
2018-09-18T05:11:03.332Z,99.99
2018-09-18T05:12:03.309Z,99.99
2018-09-18T05:13:03.279Z,99.99
2018-09-18T05:14:03.307Z,99.99
2018-09-18T05:15:03.224Z,99.99
2018-09-18T05:16:03.199Z,99.99
2018-09-18T05:17:03.170Z,99.99
2018-09-18T05:18:03.143Z,99.99
2018-09-18T05:19:03.116Z,99.99
2018-09-18T05:20:03.091Z,99.99
2018-09-18T05:21:03.063Z,99.99
2018-09-18T05:22:03.039Z,99.99
2018-09-18T05:23:03.011Z,99.99
2018-09-18T05:24:02.984Z,99.99
2018-09-18T05:25:02.957Z,99.99
2018-09-18T05:26:02.930Z,99.99
2018-09-18T05:27:02.911Z,99.99
2018-09-18T05:28:02.878Z,99.99
2018-09-18T05:29:02.850Z,99.99
2018-09-18T05:30:02.826Z,99.99
2018-09-18T05:31:02.798Z,99.99
2018-09-18T05:32:02.772Z,99.99
2018-09-18T05:33:02.743Z,99.99
2018-09-18T05:34:02.719Z,99.99
2018-09-18T05:35:02.693Z,99.99
2018-09-18T05:36:02.667Z,99.99
2018-09-18T05:37:02.640Z,99.99
2018-09-18T05:38:02.614Z,99.99
2018-09-18T05:39:02.587Z,99.99
2018-09-18T05:40:02.565Z,99.99
2018-09-18T05:41:02.536Z,99.99
2018-09-18T05:42:02.629Z,99.99
2018-09-18T05:43:02.485Z,99.99
2018-09-18T05:44:02.460Z,99.99
2018-09-18T05:45:02.435Z,99.99
2018-09-18T05:46:02.408Z,99.99
2018-09-18T05:47:02.384Z,99.99
2018-09-18T05:48:02.436Z,99.99
2018-09-18T05:49:02.334Z,99.99
2018-09-18T05:50:02.308Z,99.99
2018-09-18T05:51:02.285Z,99.99
2018-09-18T05:52:02.262Z,99.99
2018-09-18T05:53:02.235Z,99.99
2018-09-18T05:54:02.210Z,99.99
2018-09-18T05:55:02.192Z,99.99
2018-09-18T05:56:02.164Z,99.99
2018-09-18T05:57:02.137Z,99.99
2018-09-18T05:58:02.113Z,99.99
2018-09-18T05:59:02.091Z,99.99
2018-09-18T06:00:02.067Z,99.99
2018-09-18T06:01:02.043Z,99.99
2018-09-18T06:02:02.016Z,99.99
2018-09-18T06:03:02.007Z,99.99
2018-09-18T06:04:01.969Z,99.99
2018-09-18T06:05:01.945Z,99.99
2018-09-18T06:06:01.926Z,99.99
2018-09-18T06:07:01.895Z,97.56
2018-09-18T06:08:01.872Z,94.17
2018-09-18T06:09:01.848Z,90.48
2018-09-18T06:10:01.825Z,91.68
2018-09-18T06:11:01.800Z,87.90
2018-09-18T06:12:01.778Z,85.54
2018-09-18T06:13:01.758Z,83.38
2018-09-18T06:14:01.735Z,81.60
2018-09-18T06:15:01.712Z,80.40
2018-09-18T06:16:01.739Z,78.52
2018-09-18T06:17:01.665Z,76.50
2018-09-18T06:18:01.642Z,75.77
2018-09-18T06:19:01.675Z,73.98
2018-09-18T06:20:01.599Z,74.94
2018-09-18T06:21:01.578Z,72.19
2018-09-18T06:22:01.556Z,69.50
2018-09-18T06:23:01.535Z,68.57
2018-09-18T06:24:01.514Z,68.57
2018-09-18T06:25:01.493Z,66.49
2018-09-18T06:26:01.510Z,65.33
2018-09-18T06:27:01.453Z,65.08
2018-09-18T06:28:01.432Z,65.30
2018-09-18T06:29:01.412Z,61.87
2018-09-18T06:30:01.392Z,62.25
2018-09-18T06:31:01.373Z,61.38
2018-09-18T06:32:01.356Z,60.80
2018-09-18T06:33:01.333Z,60.58
2018-09-18T06:34:01.314Z,61.45
2018-09-18T06:35:01.294Z,61.55
2018-09-18T06:36:01.277Z,62.12
2018-09-18T06:37:01.358Z,62.03
2018-09-18T06:38:01.236Z,61.00
2018-09-18T06:39:01.216Z,61.96
2018-09-18T06:40:01.201Z,61.25
2018-09-18T06:41:01.180Z,61.80
2018-09-18T06:42:01.160Z,62.19
2018-09-18T06:43:01.144Z,63.25
2018-09-18T06:44:01.124Z,63.34
2018-09-18T06:45:01.104Z,64.12
2018-09-18T06:46:01.087Z,64.21
2018-09-18T06:47:01.067Z,62.96
2018-09-18T06:48:01.132Z,63.60
2018-09-18T06:49:01.029Z,62.63
2018-09-18T06:50:01.009Z,62.09
2018-09-18T06:51:00.996Z,60.10
2018-09-18T06:52:00.974Z,59.06
2018-09-18T06:53:00.955Z,58.70
2018-09-18T06:54:00.936Z,56.77
2018-09-18T06:55:00.922Z,55.74
2018-09-18T06:56:00.907Z,56.54
2018-09-18T06:57:00.888Z,56.67
2018-09-18T06:58:00.867Z,54.37
2018-09-18T06:59:00.851Z,52.14
2018-09-18T07:00:00.833Z,51.66
2018-09-18T07:01:00.814Z,51.40
2018-09-18T07:02:00.799Z,53.23
2018-09-18T07:03:00.778Z,50.94
2018-09-18T07:04:00.762Z,49.37
2018-09-18T07:05:00.743Z,50.02
2018-09-18T07:06:00.727Z,51.30
2018-09-18T07:07:00.718Z,51.81
2018-09-18T07:08:00.703Z,50.67
2018-09-18T07:09:00.678Z,48.83
2018-09-18T07:10:00.663Z,48.93
2018-09-18T07:11:00.645Z,50.31
2018-09-18T07:12:00.632Z,48.47
2018-09-18T07:13:00.615Z,47.81
2018-09-18T07:14:00.600Z,46.84
2018-09-18T07:15:00.584Z,46.96
2018-09-18T07:16:00.567Z,46.38
2018-09-18T07:17:00.549Z,48.83
2018-09-18T07:18:00.606Z,46.67
2018-09-18T07:19:00.518Z,46.77
2018-09-18T07:20:00.504Z,46.84
2018-09-18T07:21:00.487Z,47.60
2018-09-18T07:22:00.476Z,48.08
2018-09-18T07:23:00.456Z,48.54
2018-09-18T07:24:00.442Z,49.29
2018-09-18T07:25:00.553Z,51.45
2018-09-18T07:26:00.411Z,48.57
2018-09-18T07:27:00.399Z,48.27
2018-09-18T07:28:00.381Z,47.93
2018-09-18T07:29:00.364Z,47.66
2018-09-18T07:30:00.349Z,46.72
2018-09-18T07:31:00.335Z,45.97
2018-09-18T07:32:00.320Z,44.21
2018-09-18T07:33:00.303Z,44.24
2018-09-18T07:34:00.293Z,44.24
2018-09-18T07:35:00.275Z,44.16
2018-09-18T07:36:00.304Z,43.67
2018-09-18T07:37:00.245Z,42.53
2018-09-18T07:38:00.231Z,42.02
2018-09-18T07:39:00.218Z,41.90
2018-09-18T07:40:00.202Z,43.38
2018-09-18T07:41:00.221Z,42.82
2018-09-18T07:42:00.175Z,41.96
2018-09-18T07:43:00.163Z,40.70
2018-09-18T07:44:00.146Z,40.60
2018-09-18T07:45:00.132Z,40.80
2018-09-18T07:46:00.122Z,41.36
2018-09-18T07:47:00.105Z,41.19
2018-09-18T07:48:00.092Z,40.48
2018-09-18T07:49:00.077Z,41.26
2018-09-18T07:50:00.064Z,41.89
2018-09-18T07:51:00.050Z,41.06
2018-09-18T07:52:00.038Z,41.55
2018-09-18T07:53:00.024Z,40.60
2018-09-18T07:54:00.012Z,40.60
2018-09-18T07:54:59.995Z,40.81
2018-09-18T07:55:59.982Z,40.13
2018-09-18T07:56:59.969Z,39.08
2018-09-18T07:57:59.955Z,38.90
2018-09-18T07:58:59.943Z,39.28
2018-09-18T07:59:59.929Z,39.39
2018-09-18T08:00:59.914Z,37.71
2018-09-18T08:01:59.902Z,39.84
2018-09-18T08:02:59.892Z,39.37
2018-09-18T08:03:59.876Z,40.17
2018-09-18T08:04:59.864Z,38.20
2018-09-18T08:05:59.850Z,38.61
2018-09-18T08:06:59.839Z,38.43
2018-09-18T08:07:59.827Z,38.14
2018-09-18T08:08:59.814Z,36.33
2018-09-18T08:09:59.798Z,37.71
2018-09-18T08:10:59.845Z,36.82
2018-09-18T08:11:59.773Z,37.04
2018-09-18T08:12:59.758Z,36.57
2018-09-18T08:13:59.746Z,36.08
2018-09-18T08:14:59.734Z,36.25
2018-09-18T08:15:59.721Z,36.86
2018-09-18T08:16:59.708Z,35.30
2018-09-18T08:17:59.695Z,36.10
2018-09-18T08:18:59.888Z,35.59
2018-09-18T08:19:59.670Z,36.14
2018-09-18T08:20:59.657Z,36.72
2018-09-18T08:21:59.692Z,36.57
2018-09-18T08:22:59.633Z,35.80
2018-09-18T08:23:59.621Z,35.22
2018-09-18T08:24:59.609Z,33.85
2018-09-18T08:25:59.595Z,34.36
2018-09-18T08:26:59.582Z,34.38
2018-09-18T08:27:59.570Z,34.18
2018-09-18T08:28:59.557Z,33.79
2018-09-18T08:29:59.550Z,33.50
2018-09-18T08:30:59.533Z,33.87
2018-09-18T08:31:59.522Z,33.65
2018-09-18T08:32:59.561Z,34.47
2018-09-18T08:33:59.497Z,33.40
2018-09-18T08:34:59.486Z,32.52
2018-09-18T08:35:59.475Z,32.32
2018-09-18T08:36:59.461Z,32.24
2018-09-18T08:37:59.450Z,32.16
2018-09-18T08:38:59.461Z,32.24
2018-09-18T08:39:59.537Z,32.81
2018-09-18T08:40:59.414Z,32.34
2018-09-18T08:41:59.402Z,32.32
2018-09-18T08:42:59.390Z,33.31
2018-09-18T08:43:59.392Z,32.56
2018-09-18T08:44:59.366Z,31.51
2018-09-18T08:45:59.354Z,30.02
2018-09-18T08:46:59.356Z,30.37
2018-09-18T08:47:59.334Z,30.48
2018-09-18T08:48:59.323Z,30.40
2018-09-18T08:49:59.360Z,30.51
2018-09-18T08:50:59.297Z,29.95
2018-09-18T08:51:59.385Z,28.65
2018-09-18T08:52:59.286Z,28.55
2018-09-18T08:53:59.265Z,29.52
2018-09-18T08:54:59.252Z,30.06
2018-09-18T08:55:59.269Z,30.65
2018-09-18T08:56:59.249Z,29.59
2018-09-18T08:57:59.216Z,29.77
2018-09-18T08:58:59.224Z,29.96
2018-09-18T08:59:59.195Z,30.24
2018-09-18T09:00:59.182Z,29.93
2018-09-18T09:01:59.173Z,30.93
2018-09-18T09:02:59.183Z,30.52
2018-09-18T09:03:59.146Z,30.73
2018-09-18T09:04:59.151Z,31.12
2018-09-18T09:05:59.197Z,30.37
2018-09-18T09:06:59.131Z,29.59
2018-09-18T09:07:59.269Z,30.09
2018-09-18T09:08:59.241Z,28.82
2018-09-18T09:09:59.073Z,29.71
2018-09-18T09:10:59.092Z,29.35
2018-09-18T09:11:59.070Z,27.28
2018-09-18T09:12:59.044Z,27.87
2018-09-18T09:13:59.024Z,28.26
2018-09-18T09:14:59.045Z,28.54
2018-09-18T09:15:59.007Z,27.98
2018-09-18T09:16:58.997Z,27.88
2018-09-18T09:17:59.089Z,27.88
2018-09-18T09:18:58.981Z,27.11
2018-09-18T09:19:58.958Z,27.37
2018-09-18T09:20:58.977Z,27.95
2018-09-18T09:21:59.066Z,28.33
2018-09-18T09:22:59.063Z,28.43
2018-09-18T09:23:58.993Z,27.97
2018-09-18T09:24:58.906Z,27.94
2018-09-18T09:25:58.892Z,27.47
2018-09-18T09:26:58.930Z,27.86
2018-09-18T09:27:58.877Z,27.94
2018-09-18T09:28:58.849Z,28.25
2018-09-18T09:29:58.909Z,27.47
2018-09-18T09:30:58.843Z,26.89
2018-09-18T09:31:58.829Z,26.61
2018-09-18T09:32:58.901Z,27.27
2018-09-18T09:33:58.821Z,27.56
2018-09-18T09:34:58.781Z,27.75
2018-09-18T09:35:58.777Z,26.98
2018-09-18T09:36:58.846Z,26.68
2018-09-18T09:37:58.747Z,27.17
2018-09-18T09:38:58.734Z,27.10
2018-09-18T09:39:58.723Z,26.61
2018-09-18T09:40:58.710Z,26.64
2018-09-18T09:41:58.745Z,25.57
2018-09-18T09:42:58.688Z,24.96
2018-09-18T09:43:58.676Z,25.73
2018-09-18T09:44:58.701Z,25.55
2018-09-18T09:45:58.652Z,25.56
2018-09-18T09:46:58.642Z,25.76
2018-09-18T09:47:58.630Z,24.85
2018-09-18T09:48:58.619Z,25.56
2018-09-18T09:49:58.607Z,24.85
2018-09-18T09:50:58.605Z,25.37
2018-09-18T09:51:58.584Z,25.49
2018-09-18T09:52:58.575Z,24.63
2018-09-18T09:53:58.562Z,24.05
2018-09-18T09:54:58.550Z,24.14
2018-09-18T09:55:58.539Z,24.32
2018-09-18T09:56:58.707Z,24.38
2018-09-18T09:57:58.518Z,25.54
2018-09-18T09:58:58.506Z,25.77
2018-09-18T09:59:58.496Z,24.69
2018-09-18T10:00:58.497Z,24.58
2018-09-18T10:01:58.476Z,25.45
2018-09-18T10:02:58.594Z,26.04
2018-09-18T10:03:58.452Z,25.74
2018-09-18T10:04:58.441Z,25.55
2018-09-18T10:05:58.428Z,25.46
2018-09-18T10:06:58.418Z,24.70
2018-09-18T10:07:58.406Z,24.81
2018-09-18T10:08:58.395Z,24.82
2018-09-18T10:09:58.383Z,24.46
2018-09-18T10:10:58.752Z,24.04
2018-09-18T10:11:58.362Z,24.42
2018-09-18T10:12:58.350Z,24.60
2018-09-18T10:13:58.339Z,25.31
2018-09-18T10:14:58.329Z,24.25
2018-09-18T10:15:58.318Z,23.35
2018-09-18T10:16:58.306Z,23.17
2018-09-18T10:17:58.431Z,23.07
2018-09-18T10:18:58.286Z,23.95
2018-09-18T10:19:58.274Z,23.86
2018-09-18T10:20:58.264Z,23.67
2018-09-18T10:21:58.252Z,23.86
2018-09-18T10:22:58.242Z,22.96
2018-09-18T10:23:58.263Z,22.66
2018-09-18T10:24:58.229Z,22.56
2018-09-18T10:25:58.274Z,22.28
2018-09-18T10:26:58.258Z,22.49
2018-09-18T10:27:58.188Z,22.46
2018-09-18T10:28:58.194Z,23.16
2018-09-18T10:29:58.170Z,22.96
2018-09-18T10:30:58.175Z,22.85
2018-09-18T10:31:58.145Z,23.35
2018-09-18T10:32:58.134Z,22.88
2018-09-18T10:33:58.124Z,22.52
2018-09-18T10:34:58.118Z,21.90
2018-09-18T10:35:58.102Z,22.38
2018-09-18T10:36:58.108Z,22.27
2018-09-18T10:37:58.080Z,22.09
2018-09-18T10:38:58.080Z,22.27
2018-09-18T10:39:58.070Z,22.49
2018-09-18T10:40:58.142Z,22.50
2018-09-18T10:41:58.163Z,21.33
2018-09-18T10:42:58.052Z,21.33
2018-09-18T10:43:58.016Z,21.53
2018-09-18T10:44:58.016Z,20.54
2018-09-18T10:45:58.010Z,22.09
2018-09-18T10:46:58.013Z,22.20
2018-09-18T10:47:57.978Z,21.33
2018-09-18T10:48:57.962Z,21.73
2018-09-18T10:49:57.950Z,21.31
2018-09-18T10:50:57.940Z,21.61
2018-09-18T10:51:57.928Z,21.50
2018-09-18T10:52:57.918Z,22.27
2018-09-18T10:53:57.906Z,22.17
2018-09-18T10:54:57.899Z,22.17
2018-09-18T10:55:57.886Z,22.37
2018-09-18T10:56:57.873Z,21.88
2018-09-18T10:57:57.862Z,21.88
2018-09-18T10:58:57.852Z,21.50
2018-09-18T10:59:57.841Z,21.42
2018-09-18T11:00:57.829Z,20.73
2018-09-18T11:01:57.878Z,21.42
2018-09-18T11:02:57.829Z,20.94
2018-09-18T11:03:57.797Z,20.35
2018-09-18T11:04:57.788Z,20.54
2018-09-18T11:05:57.778Z,20.93
2018-09-18T11:06:57.854Z,20.82
2018-09-18T11:07:57.846Z,21.49
2018-09-18T11:08:57.780Z,22.17
2018-09-18T11:09:57.836Z,21.98
2018-09-18T11:10:57.718Z,21.59
2018-09-18T11:11:57.755Z,21.69
2018-09-18T11:12:57.698Z,22.56
2018-09-18T11:13:57.750Z,22.88
2018-09-18T11:14:57.679Z,21.50
2018-09-18T11:15:57.705Z,20.51
2018-09-18T11:16:57.721Z,21.69
2018-09-18T11:17:57.713Z,20.92
2018-09-18T11:18:57.661Z,20.90
2018-09-18T11:19:57.641Z,21.39
2018-09-18T11:20:57.633Z,21.78
2018-09-18T11:21:57.630Z,22.25
2018-09-18T11:22:57.600Z,22.45
2018-09-18T11:23:57.748Z,22.35
2018-09-18T11:24:57.634Z,22.06
2018-09-18T11:25:57.682Z,22.16
2018-09-18T11:26:57.554Z,22.06
2018-09-18T11:27:57.543Z,21.96
2018-09-18T11:28:57.512Z,21.88
2018-09-18T11:29:57.527Z,21.39
2018-09-18T11:30:57.489Z,21.20
2018-09-18T11:31:57.503Z,21.50
2018-09-18T11:32:57.610Z,21.42
2018-09-18T11:33:57.454Z,20.56
2018-09-18T11:34:57.442Z,19.88
2018-09-18T11:35:57.430Z,20.07
2018-09-18T11:36:57.417Z,20.18
2018-09-18T11:37:57.405Z,19.57
2018-09-18T11:38:57.397Z,20.04
2018-09-18T11:39:57.386Z,19.86
2018-09-18T11:40:57.375Z,20.06
2018-09-18T11:41:57.360Z,20.46
2018-09-18T11:42:57.349Z,19.46
2018-09-18T11:43:57.338Z,19.66
2018-09-18T11:44:57.325Z,19.87
2018-09-18T11:45:57.505Z,19.67
2018-09-18T11:46:57.306Z,20.06
2018-09-18T11:47:57.294Z,20.17
2018-09-18T11:48:57.280Z,19.96
2018-09-18T11:49:57.268Z,20.65
2018-09-18T11:50:57.256Z,20.24
2018-09-18T11:51:57.246Z,20.84
2018-09-18T11:52:57.309Z,20.56
2018-09-18T11:53:57.222Z,20.45
2018-09-18T11:54:57.211Z,20.04
2018-09-18T11:55:57.200Z,20.62
2018-09-18T11:56:57.211Z,20.75
2018-09-18T11:57:57.176Z,19.98
2018-09-18T11:58:57.171Z,19.59
2018-09-18T11:59:57.154Z,19.61
2018-09-18T12:00:57.147Z,19.50
2018-09-18T12:01:57.130Z,19.60
2018-09-18T12:02:57.132Z,18.81
2018-09-18T12:03:57.111Z,19.09
2018-09-18T12:04:57.157Z,19.96
2018-09-18T12:05:57.085Z,20.36
2018-09-18T12:06:57.074Z,20.46
2018-09-18T12:07:57.063Z,19.96
2018-09-18T12:08:57.062Z,20.35
2018-09-18T12:09:57.041Z,20.45
2018-09-18T12:10:57.030Z,20.44
2018-09-18T12:11:57.017Z,20.45
2018-09-18T12:12:57.005Z,20.56
2018-09-18T12:13:56.996Z,19.58
2018-09-18T12:14:56.984Z,19.88
2018-09-18T12:15:56.975Z,19.96
2018-09-18T12:16:57.020Z,19.98
2018-09-18T12:17:56.951Z,19.59
2018-09-18T12:18:56.939Z,19.50
2018-09-18T12:19:56.927Z,19.48
2018-09-18T12:20:56.916Z,20.04
2018-09-18T12:21:56.903Z,20.53
2018-09-18T12:22:56.891Z,21.01
2018-09-18T12:23:56.882Z,20.73
2018-09-18T12:24:56.873Z,20.44
2018-09-18T12:25:56.860Z,20.25
2018-09-18T12:26:56.847Z,20.04
2018-09-18T12:27:56.865Z,20.62
2018-09-18T12:28:56.821Z,21.03
2018-09-18T12:29:56.811Z,20.82
2018-09-18T12:30:56.800Z,20.64
2018-09-18T12:31:56.787Z,20.54
2018-09-18T12:32:56.776Z,19.66
2018-09-18T12:33:56.763Z,20.24
2018-09-18T12:34:56.751Z,20.06
2018-09-18T12:35:56.741Z,19.48
2018-09-18T12:36:56.728Z,19.48
2018-09-18T12:37:56.716Z,19.58
2018-09-18T12:38:56.708Z,19.20
2018-09-18T12:39:56.694Z,19.40
2018-09-18T12:40:56.682Z,19.20
2018-09-18T12:41:56.904Z,19.10
2018-09-18T12:42:56.659Z,19.50
2018-09-18T12:43:56.648Z,19.61
2018-09-18T12:44:56.636Z,19.20
2018-09-18T12:45:56.624Z,18.71
2018-09-18T12:46:56.614Z,18.91
2018-09-18T12:47:56.624Z,18.34
2018-09-18T12:48:56.597Z,18.82
2018-09-18T12:49:56.750Z,18.21
2018-09-18T12:50:56.659Z,18.98
2018-09-18T12:51:56.560Z,19.38